Time;durP1;ratioP1;P1;durP2;ratioP2;P2;SDS_P1;SDS_P2;PMS_P1;PMS_P2;Temp;Humidity;BMP_temperature;BMP_pressure;BME280_temperature;BME280_humidity;BME280_pressure;Samples;Min_cycle;Max_cycle;Signal;HPM_P1;HPM_P2
2023/01/27 00:00:33;;;;;;;30.88;3.78;;;;;;;5.97;100.00;102567.94;5011955;28;20528;-39
2023/01/27 00:02:58;;;;;;;31.67;3.15;;;;;;;5.92;100.00;102566.41;5024298;28;20022;-39
2023/01/27 00:05:25;;;;;;;33.72;2.83;;;;;;;6.00;100.00;102567.69;5028007;28;20330;-39
2023/01/27 00:07:50;;;;;;;35.08;3.00;;;;;;;5.97;100.00;102566.09;5029145;28;20108;-39
2023/01/27 00:10:17;;;;;;;31.63;2.92;;;;;;;5.99;100.00;102564.19;5030671;28;20120;-39
2023/01/27 00:15:29;;;;;;;35.30;3.00;;;;;;;5.93;100.00;102553.91;5015666;28;20057;-40
2023/01/27 00:17:54;;;;;;;23.33;1.92;;;;;;;6.00;100.00;102559.69;5027300;28;20025;-39
2023/01/27 00:25:49;;;;;;;24.83;2.08;;;;;;;6.00;100.00;102535.63;5019547;28;20416;-39
2023/01/27 00:28:21;;;;;;;21.13;2.70;;;;;;;6.00;100.00;102533.81;5021940;28;20034;-39
2023/01/27 00:30:49;;;;;;;20.95;2.70;;;;;;;5.97;100.00;102530.50;5016055;28;20084;-39
2023/01/27 00:33:26;;;;;;;18.93;2.07;;;;;;;6.00;100.00;102540.97;5020394;28;20029;-40
2023/01/27 00:36:06;;;;;;;32.47;2.17;;;;;;;5.98;100.00;102534.88;5027883;28;20302;-40
2023/01/27 00:38:34;;;;;;;18.20;2.10;;;;;;;6.01;100.00;102532.00;5031652;28;20037;-39
2023/01/27 00:41:18;;;;;;;25.83;2.05;;;;;;;5.96;100.00;102535.00;5034648;28;20035;-39
2023/01/27 00:43:51;;;;;;;25.25;2.22;;;;;;;5.93;100.00;102536.09;5022004;28;20391;-39
2023/01/27 00:46:17;;;;;;;22.08;2.38;;;;;;;5.97;100.00;102536.72;5015599;28;20026;-39
2023/01/27 00:48:43;;;;;;;26.92;2.10;;;;;;;5.97;100.00;102538.53;5020531;28;20030;-39
2023/01/27 00:51:09;;;;;;;26.83;2.83;;;;;;;6.01;100.00;102540.03;5029319;28;20040;-39
2023/01/27 00:53:35;;;;;;;27.17;2.40;;;;;;;5.98;100.00;102542.91;5023874;28;20095;-41
2023/01/27 00:56:00;;;;;;;25.98;2.42;;;;;;;5.99;100.00;102539.28;5015446;28;20346;-39
2023/01/27 00:58:26;;;;;;;21.83;2.28;;;;;;;5.98;100.00;102542.91;5015696;28;20049;-38
2023/01/27 01:00:59;;;;;;;36.08;3.08;;;;;;;5.99;100.00;102539.28;5015732;28;20026;-40
2023/01/27 01:03:27;;;;;;;22.70;2.25;;;;;;;5.97;100.00;102541.19;5021119;28;20155;-39
2023/01/27 01:05:52;;;;;;;26.10;2.20;;;;;;;5.97;100.00;102535.84;5034189;28;20033;-40
2023/01/27 01:08:17;;;;;;;20.02;2.20;;;;;;;5.92;100.00;102539.69;5020655;28;20092;-40
2023/01/27 01:10:43;;;;;;;12.38;1.48;;;;;;;5.94;100.00;102542.28;5016454;28;20030;-40
2023/01/27 01:13:12;;;;;;;18.70;1.88;;;;;;;5.91;100.00;102546.00;5043180;28;20364;-40
2023/01/27 01:15:38;;;;;;;;;;;;;;;5.89;100.00;102545.25;5035814;28;20026;-39
2023/01/27 01:18:03;;;;;;;16.10;1.60;;;;;;;5.84;100.00;102536.69;5033076;28;19924;-38
2023/01/27 01:20:29;;;;;;;22.33;1.75;;;;;;;5.86;100.00;102534.78;5033677;28;20022;-39
2023/01/27 01:22:54;;;;;;;17.80;2.38;;;;;;;5.87;100.00;102531.16;5033685;28;20033;-39
2023/01/27 01:25:20;;;;;;;15.32;2.20;;;;;;;5.84;100.00;102528.69;5028285;28;20033;-39
2023/01/27 01:27:45;;;;;;;17.17;1.58;;;;;;;5.84;100.00;102530.50;5032919;28;20369;-40
2023/01/27 01:30:11;;;;;;;12.32;1.70;;;;;;;5.84;100.00;102530.50;5034910;28;20471;-39
2023/01/27 01:32:36;;;;;;;16.42;1.80;;;;;;;5.83;100.00;102524.31;5035304;28;20045;-40
2023/01/27 01:35:01;;;;;;;30.08;2.88;;;;;;;5.85;100.00;102538.41;5016526;28;20029;-41
2023/01/27 01:37:27;;;;;;;18.00;1.52;;;;;;;5.85;100.00;102543.75;5018240;28;20037;-39
2023/01/27 01:39:52;;;;;;;15.43;2.30;;;;;;;5.86;100.00;102541.94;5034514;28;20029;-39
2023/01/27 01:42:17;;;;;;;22.23;2.40;;;;;;;5.79;100.00;102543.34;5033659;28;20108;-40
2023/01/27 01:44:44;;;;;;;27.70;2.00;;;;;;;5.81;100.00;102538.75;5033832;28;20034;-40
2023/01/27 01:47:16;;;;;;;14.77;1.90;;;;;;;5.82;100.00;102544.00;5031788;28;20443;-40
2023/01/27 01:49:43;;;;;;;27.83;2.38;;;;;;;5.81;100.00;102552.09;5033955;28;20078;-40
2023/01/27 01:52:10;;;;;;;11.48;1.52;;;;;;;5.83;100.00;102556.38;5029859;28;20022;-39
2023/01/27 01:54:42;;;;;;;17.87;1.77;;;;;;;5.81;100.00;102566.31;5026830;28;20061;-40
2023/01/27 01:57:13;;;;;;;14.93;2.65;;;;;;;5.77;100.00;102562.16;5032053;28;20164;-40
2023/01/27 01:59:42;;;;;;;12.63;2.47;;;;;;;5.74;100.00;102565.06;5033848;28;20083;-40
2023/01/27 02:02:10;;;;;;;19.80;2.50;;;;;;;5.68;100.00;102555.63;5022911;28;20506;-39
2023/01/27 02:04:39;;;;;;;22.33;2.45;;;;;;;5.66;100.00;102559.38;5031815;28;20033;-39
2023/01/27 02:07:11;;;;;;;18.63;2.88;;;;;;;5.57;100.00;102560.88;5028454;28;20475;-39
2023/01/27 02:09:37;;;;;;;15.35;2.38;;;;;;;5.49;100.00;102557.88;5019496;28;20033;-39
2023/01/27 02:12:03;;;;;;;11.60;2.13;;;;;;;5.49;100.00;102558.72;5034086;28;20029;-39
2023/01/27 02:14:28;;;;;;;18.30;2.90;;;;;;;5.50;100.00;102565.81;5019938;28;20026;-39
2023/01/27 02:16:54;;;;;;;8.57;2.03;;;;;;;5.46;100.00;102569.63;5014082;28;20930;-40
2023/01/27 02:19:52;;;;;;;18.38;4.05;;;;;;;5.46;100.00;102569.63;5033740;28;20456;-40
2023/01/27 02:22:25;;;;;;;17.30;3.03;;;;;;;5.47;100.00;102560.66;5032885;28;20037;-39
2023/01/27 02:24:58;;;;;;;16.85;3.03;;;;;;;5.47;100.00;102574.00;5031047;28;20065;-39
2023/01/27 02:27:23;;;;;;;23.30;5.00;;;;;;;5.43;100.00;102564.50;5025763;28;20025;-39
2023/01/27 02:29:48;;;;;;;17.75;2.50;;;;;;;5.36;100.00;102567.72;5014354;28;20131;-39
2023/01/27 02:32:24;;;;;;;11.52;2.45;;;;;;;5.40;100.00;102564.72;5026850;28;20033;-39
2023/01/27 02:34:50;;;;;;;14.02;2.90;;;;;;;5.42;100.00;102573.47;5013308;28;20025;-39
2023/01/27 02:37:15;;;;;;;19.05;2.88;;;;;;;5.35;100.00;102574.88;5016632;28;20099;-39
2023/01/27 02:39:42;;;;;;;11.57;3.10;;;;;;;5.28;100.00;102576.25;5032602;28;20025;-39
2023/01/27 02:42:09;;;;;;;10.77;2.97;;;;;;;5.22;100.00;102572.19;5025391;28;20426;-39
2023/01/27 02:44:34;;;;;;;24.08;3.70;;;;;;;5.18;100.00;102573.34;5030876;28;20386;-39
2023/01/27 02:47:00;;;;;;;16.02;3.97;;;;;;;5.16;100.00;102571.72;5028847;28;20060;-38
2023/01/27 02:49:25;;;;;;;12.98;4.00;;;;;;;5.18;100.00;102565.31;5013904;28;20466;-38
2023/01/27 02:51:50;;;;;;;20.90;3.78;;;;;;;5.13;100.00;102571.94;5015387;28;20073;-40
2023/01/27 02:54:16;;;;;;;24.10;3.97;;;;;;;5.05;100.00;102570.66;5026058;28;20048;-40
2023/01/27 02:56:41;;;;;;;12.57;3.63;;;;;;;5.03;100.00;102577.06;5018816;28;20121;-39
2023/01/27 02:59:07;;;;;;;13.30;3.67;;;;;;;5.02;100.00;102584.19;5013144;28;20100;-39
2023/01/27 03:01:32;;;;;;;14.13;4.38;;;;;;;5.01;100.00;102587.84;5012144;28;20070;-39
2023/01/27 03:03:58;;;;;;;15.18;3.58;;;;;;;5.03;100.00;102593.06;5028232;28;20397;-39
2023/01/27 03:06:23;;;;;;;19.58;5.30;;;;;;;5.00;100.00;102594.13;5031722;28;20036;-39
2023/01/27 03:08:49;;;;;;;20.73;6.78;;;;;;;4.90;100.00;102587.69;5031678;28;20095;-38
2023/01/27 03:12:18;;;;;;;18.88;5.65;;;;;;;4.84;100.00;102591.63;5031489;28;20025;-40
2023/01/27 03:14:00;;;;;;;20.15;7.32;;;;;;;4.79;100.00;102611.53;5029896;28;20040;-38
2023/01/27 03:19:09;;;;;;;21.23;7.20;;;;;;;4.79;100.00;102603.53;5029936;28;20036;-38
2023/01/27 03:21:34;;;;;;;19.15;6.43;;;;;;;4.76;100.00;102612.59;5011762;28;20448;-38
2023/01/27 03:23:59;;;;;;;24.73;7.72;;;;;;;4.77;100.00;102609.00;5027587;28;20456;-38
2023/01/27 03:26:25;;;;;;;21.98;6.95;;;;;;;4.73;100.00;102610.13;5031729;28;20370;-38
2023/01/27 03:29:53;;;;;;;18.20;7.53;;;;;;;4.74;100.00;102616.31;5018032;28;20041;-39
2023/01/27 03:31:35;;;;;;;24.05;7.90;;;;;;;4.67;100.00;102609.69;5013622;28;20277;-39
2023/01/27 03:34:01;;;;;;;18.13;7.85;;;;;;;4.67;100.00;102617.69;5029877;28;20117;-39
2023/01/27 03:47:23;;;;;;;23.10;8.25;;;;;;;4.45;100.00;102635.09;5031057;28;20037;-40
2023/01/27 03:49:48;;;;;;;23.35;9.00;;;;;;;4.45;100.00;102640.41;5029958;28;20025;-40
2023/01/27 03:52:13;;;;;;;17.98;9.18;;;;;;;4.39;100.00;102630.97;5024926;28;20361;-39
2023/01/27 03:54:39;;;;;;;22.10;9.10;;;;;;;4.34;100.00;102633.06;5030510;28;20388;-39
2023/01/27 03:57:04;;;;;;;24.48;8.40;;;;;;;4.31;100.00;102632.41;5029414;28;20432;-40
2023/01/27 03:59:30;;;;;;;25.58;9.13;;;;;;;4.31;100.00;102637.75;5030220;28;20052;-39
2023/01/27 04:07:23;;;;;;;22.33;8.27;;;;;;;4.22;100.00;102643.69;5030817;28;20467;-39
2023/01/27 04:09:50;;;;;;;17.05;6.65;;;;;;;4.16;100.00;102643.09;5030666;28;20026;-39
2023/01/27 04:12:15;;;;;;;19.25;7.68;;;;;;;4.17;100.00;102652.81;5028090;28;20480;-38
2023/01/27 04:14:41;;;;;;;17.63;7.57;;;;;;;4.17;100.00;102658.13;5023660;28;20094;-40
2023/01/27 04:17:15;;;;;;;14.68;7.35;;;;;;;4.21;100.00;102660.59;5022703;28;20022;-38
2023/01/27 04:19:41;;;;;;;18.52;7.55;;;;;;;4.17;100.00;102652.81;5011900;28;20030;-38
2023/01/27 04:22:07;;;;;;;22.17;8.27;;;;;;;4.21;100.00;102657.94;5012739;28;20422;-39
2023/01/27 04:24:32;;;;;;;19.70;8.20;;;;;;;4.21;100.00;102663.28;5030994;28;20029;-38
2023/01/27 04:27:03;;;;;;;19.38;8.40;;;;;;;4.20;100.00;102664.22;5028647;28;20044;-39
2023/01/27 04:29:30;;;;;;;18.77;8.00;;;;;;;4.18;100.00;102662.50;5026877;28;20532;-39
2023/01/27 04:31:56;;;;;;;21.50;7.87;;;;;;;4.16;100.00;102660.88;5030604;28;20041;-38
2023/01/27 04:34:23;;;;;;;19.98;9.23;;;;;;;4.12;100.00;102662.91;5015004;28;20037;-39
2023/01/27 04:36:48;;;;;;;24.05;8.82;;;;;;;4.11;100.00;102663.84;5011174;28;20369;-39
2023/01/27 04:39:14;;;;;;;21.55;9.80;;;;;;;4.08;100.00;102669.38;5010613;28;20101;-39
2023/01/27 04:41:39;;;;;;;21.40;9.20;;;;;;;4.13;100.00;102671.75;5019822;28;20125;-39
2023/01/27 04:44:05;;;;;;;21.15;9.77;;;;;;;4.15;100.00;102676.03;5015207;28;20033;-39
2023/01/27 04:46:32;;;;;;;25.08;10.48;;;;;;;4.10;100.00;102671.94;5016533;28;20033;-39
2023/01/27 04:48:57;;;;;;;25.85;9.57;;;;;;;4.10;100.00;102679.94;5030859;28;20032;-39
2023/01/27 04:51:23;;;;;;;20.27;9.85;;;;;;;4.12;100.00;102670.88;5023535;28;20393;-39
2023/01/27 04:53:48;;;;;;;17.48;9.05;;;;;;;4.11;100.00;102679.00;5024422;28;20088;-39
2023/01/27 04:56:29;;;;;;;26.70;9.68;;;;;;;4.06;100.00;102671.28;5028022;28;20053;-39
2023/01/27 04:59:01;;;;;;;21.58;9.25;;;;;;;4.05;100.00;102674.88;5010765;28;20085;-39
2023/01/27 05:01:27;;;;;;;17.27;8.75;;;;;;;4.04;100.00;102667.00;5012897;28;20532;-39
2023/01/27 05:03:53;;;;;;;20.20;9.05;;;;;;;4.07;100.00;102672.13;5015478;28;20030;-40
2023/01/27 05:06:19;;;;;;;19.90;8.75;;;;;;;4.02;100.00;102674.22;5034345;28;20366;-39
2023/01/27 05:08:44;;;;;;;15.30;8.20;;;;;;;4.09;100.00;102679.06;5034022;28;20037;-39
2023/01/27 05:11:10;;;;;;;15.80;8.70;;;;;;;4.11;100.00;102673.66;5019274;28;20022;-39
2023/01/27 05:13:36;;;;;;;16.83;8.55;;;;;;;4.07;100.00;102678.31;5020351;28;20112;-39
2023/01/27 05:16:08;;;;;;;15.88;8.60;;;;;;;4.05;100.00;102682.88;5021084;28;20112;-39
2023/01/27 05:18:34;;;;;;;16.33;8.75;;;;;;;4.05;100.00;102688.19;5024274;28;20113;-39
2023/01/27 05:21:00;;;;;;;16.80;9.15;;;;;;;4.00;100.00;102686.75;5018065;28;20120;-39
2023/01/27 05:23:35;;;;;;;17.67;10.00;;;;;;;3.98;100.00;102689.53;5034322;28;20076;-39
2023/01/27 05:26:06;;;;;;;13.18;8.02;;;;;;;3.94;100.00;102694.19;5033231;28;20400;-39
2023/01/27 05:28:32;;;;;;;18.88;8.30;;;;;;;3.90;100.00;102695.34;5019368;28;20488;-39
2023/01/27 05:31:08;;;;;;;19.65;9.00;;;;;;;3.90;100.00;102695.34;5013925;28;20053;-40
2023/01/27 05:33:34;;;;;;;16.50;9.07;;;;;;;3.93;100.00;102678.31;5029173;28;20505;-39
2023/01/27 05:36:01;;;;;;;18.08;7.97;;;;;;;3.92;100.00;102690.78;5033372;28;20032;-39
2023/01/27 05:38:27;;;;;;;13.25;7.85;;;;;;;3.94;100.00;102698.66;5018269;28;20052;-39
2023/01/27 05:40:57;;;;;;;11.88;7.95;;;;;;;3.96;100.00;102694.94;5020969;28;20477;-39
2023/01/27 05:43:23;;;;;;;15.07;7.13;;;;;;;4.00;100.00;102698.28;5029797;28;20468;-39
2023/01/27 05:45:48;;;;;;;11.93;7.13;;;;;;;4.01;100.00;102688.50;5018077;28;20128;-39
2023/01/27 05:48:14;;;;;;;9.95;6.07;;;;;;;4.01;100.00;102689.34;5022871;28;20133;-39
2023/01/27 05:50:39;;;;;;;11.45;6.75;;;;;;;3.99;100.00;102691.25;5013235;28;20049;-39
2023/01/27 05:53:04;;;;;;;13.85;5.75;;;;;;;4.03;100.00;102692.78;5031024;28;20052;-39
2023/01/27 05:55:30;;;;;;;8.20;5.68;;;;;;;4.06;100.00;102697.06;5027423;28;20022;-38
2023/01/27 05:57:55;;;;;;;11.35;5.80;;;;;;;4.09;100.00;102692.41;5028593;28;20392;-40
2023/01/27 06:00:21;;;;;;;7.50;4.80;;;;;;;4.08;100.00;102684.47;5032924;28;20396;-39
2023/01/27 06:02:46;;;;;;;11.20;5.03;;;;;;;4.10;100.00;102694.09;5025609;28;20037;-40
2023/01/27 06:05:11;;;;;;;10.38;4.82;;;;;;;4.12;100.00;102689.53;5032145;28;20119;-39
2023/01/27 06:07:36;;;;;;;7.00;4.45;;;;;;;4.10;100.00;102698.56;5032929;28;20067;-40
2023/01/27 06:10:02;;;;;;;5.40;4.43;;;;;;;4.09;100.00;102687.06;5029414;28;20030;-38
2023/01/27 06:12:27;;;;;;;8.30;4.05;;;;;;;4.08;100.00;102690.69;5023267;28;20033;-38
2023/01/27 06:14:54;;;;;;;6.18;3.85;;;;;;;4.08;100.00;102690.69;5018042;28;20029;-40
2023/01/27 06:17:19;;;;;;;5.82;4.00;;;;;;;4.07;100.00;102694.28;5017649;28;20022;-40
2023/01/27 06:19:44;;;;;;;12.38;4.20;;;;;;;4.07;100.00;102698.78;5021410;28;20056;-39
2023/01/27 06:22:10;;;;;;;5.25;3.80;;;;;;;4.08;100.00;102700.47;5033100;28;20026;-40
2023/01/27 06:24:35;;;;;;;4.60;3.55;;;;;;;4.05;100.00;102698.84;5025758;28;20100;-40
2023/01/27 06:27:00;;;;;;;4.05;3.10;;;;;;;4.05;100.00;102712.16;5029262;28;20037;-40
2023/01/27 06:29:26;;;;;;;5.95;3.85;;;;;;;4.02;100.00;102716.84;5021597;28;20036;-39
2023/01/27 06:31:51;;;;;;;7.32;3.08;;;;;;;4.04;100.00;102717.63;5021721;28;20137;-40
2023/01/27 06:34:16;;;;;;;10.55;3.15;;;;;;;4.07;100.00;102720.09;5030470;28;20471;-38
2023/01/27 06:36:42;;;;;;;4.68;3.20;;;;;;;4.06;100.00;102716.56;5015720;28;20042;-40
2023/01/27 06:39:08;;;;;;;7.93;4.00;;;;;;;4.06;100.00;102721.06;5015561;28;20129;-40
2023/01/27 06:41:33;;;;;;;10.38;3.08;;;;;;;4.06;100.00;102724.56;5021592;28;20064;-40
2023/01/27 06:43:59;;;;;;;5.13;3.33;;;;;;;4.05;100.00;102725.50;5017873;28;20057;-39
2023/01/27 06:46:24;;;;;;;4.68;2.75;;;;;;;4.01;100.00;102731.97;5012402;28;20037;-39
2023/01/27 06:48:49;;;;;;;6.82;2.97;;;;;;;4.07;100.00;102733.41;5014164;28;20475;-39
2023/01/27 06:51:15;;;;;;;5.10;2.70;;;;;;;4.06;100.00;102729.03;5024710;28;20037;-40
2023/01/27 06:53:40;;;;;;;10.18;3.22;;;;;;;4.07;100.00;102728.94;5016650;28;20084;-40
2023/01/27 06:56:06;;;;;;;5.05;3.10;;;;;;;4.04;100.00;102723.78;4998161;28;20128;-41
2023/01/27 06:58:32;;;;;;;12.00;3.45;;;;;;;4.04;100.00;102729.13;5022675;28;20104;-40
2023/01/27 07:00:57;;;;;;;4.50;2.75;;;;;;;4.03;100.00;102732.75;5024330;28;20431;-41
2023/01/27 07:03:23;;;;;;;4.05;2.72;;;;;;;4.01;100.00;102733.78;5021738;28;20083;-40
2023/01/27 07:05:49;;;;;;;7.90;3.05;;;;;;;3.97;100.00;102735.75;5025825;28;20026;-40
2023/01/27 07:08:14;;;;;;;5.47;2.70;;;;;;;3.90;100.00;102724.63;5025506;28;20037;-40
2023/01/27 07:10:40;;;;;;;6.22;2.75;;;;;;;3.80;100.00;102714.63;5021499;28;20061;-41
2023/01/27 07:13:07;;;;;;;5.57;2.45;;;;;;;3.73;100.00;102722.97;5022656;28;20038;-38
2023/01/27 07:15:33;;;;;;;6.85;2.72;;;;;;;3.73;100.00;102730.94;5023817;28;20473;-41
2023/01/27 07:17:59;;;;;;;6.90;2.95;;;;;;;3.69;100.00;102725.91;5025845;28;20037;-39
2023/01/27 07:20:27;;;;;;;6.85;2.72;;;;;;;3.65;100.00;102741.19;5025479;28;20041;-41
2023/01/27 07:22:57;;;;;;;4.43;2.70;;;;;;;3.68;100.00;102735.69;5028610;28;20029;-42
2023/01/27 07:25:22;;;;;;;6.93;2.97;;;;;;;3.65;100.00;102741.19;5029721;28;20034;-39
2023/01/27 07:27:47;;;;;;;7.60;3.00;;;;;;;3.62;100.00;102736.06;5026653;28;20045;-40
2023/01/27 07:30:13;;;;;;;11.23;2.88;;;;;;;3.68;100.00;102750.81;5025942;28;20037;-40
2023/01/27 07:32:38;;;;;;;10.70;3.00;;;;;;;3.65;100.00;102751.84;5025010;28;20144;-40
2023/01/27 07:35:04;;;;;;;5.25;2.85;;;;;;;3.68;100.00;102758.81;5025104;28;20029;-40
2023/01/27 07:37:29;;;;;;;6.07;2.92;;;;;;;3.64;100.00;102765.28;5024523;28;20045;-40
2023/01/27 07:39:54;;;;;;;8.77;3.13;;;;;;;3.64;100.00;102771.44;5025402;28;20030;-40
2023/01/27 07:42:20;;;;;;;19.27;3.25;;;;;;;3.68;100.00;102770.31;5022087;28;20045;-41
2023/01/27 07:44:45;;;;;;;6.47;2.50;;;;;;;3.75;100.00;102776.16;5021145;28;20065;-40
2023/01/27 07:47:10;;;;;;;11.80;3.25;;;;;;;3.76;100.00;102766.34;5024278;28;20057;-39
2023/01/27 07:49:36;;;;;;;8.02;2.97;;;;;;;3.70;100.00;102771.09;5023178;28;20063;-40
2023/01/27 07:52:01;;;;;;;14.95;3.65;;;;;;;3.68;100.00;102772.97;5021398;28;21322;-40
2023/01/27 07:54:27;;;;;;;6.65;2.88;;;;;;;3.66;100.00;102780.22;5021687;28;20029;-39
2023/01/27 07:56:52;;;;;;;4.88;2.70;;;;;;;3.65;100.00;102789.13;5022280;28;20032;-40
2023/01/27 07:59:17;;;;;;;8.50;2.75;;;;;;;3.63;100.00;102784.84;5023232;28;20020;-39
2023/01/27 08:01:43;;;;;;;12.00;2.75;;;;;;;3.61;100.00;102792.09;5022063;28;20590;-39
2023/01/27 08:04:08;;;;;;;6.53;2.70;;;;;;;3.61;100.00;102800.06;5023466;28;20116;-41
2023/01/27 08:06:34;;;;;;;6.38;2.25;;;;;;;3.63;100.00;102795.50;5019558;28;20013;-39
2023/01/27 08:08:59;;;;;;;11.77;2.38;;;;;;;3.62;100.00;102786.66;5024109;28;20116;-39
2023/01/27 08:11:24;;;;;;;6.93;2.10;;;;;;;3.66;100.00;102790.88;5023921;28;20013;-40
2023/01/27 08:13:50;;;;;;;5.25;2.25;;;;;;;3.66;100.00;102795.31;5025126;28;20029;-41
2023/01/27 08:16:15;;;;;;;6.97;2.30;;;;;;;3.68;100.00;102791.59;5025576;28;20468;-40
2023/01/27 08:18:41;;;;;;;14.10;2.40;;;;;;;3.76;100.00;102800.97;5019975;28;20408;-39
2023/01/27 08:21:08;;;;;;;6.05;2.10;;;;;;;3.75;100.00;102800.13;5024974;28;20034;-39
2023/01/27 08:23:34;;;;;;;7.07;2.50;;;;;;;3.82;100.00;102795.28;5021756;28;20026;-40
2023/01/27 08:26:02;;;;;;;11.60;2.80;;;;;;;3.86;100.00;102805.66;5023180;28;20048;-40
2023/01/27 08:28:29;;;;;;;9.23;2.75;;;;;;;3.93;100.00;102803.50;5025162;28;20031;-39
2023/01/27 08:31:01;;;;;;;7.05;3.47;;;;;;;3.97;100.00;102800.56;5025194;28;20042;-40
2023/01/27 08:33:27;;;;;;;6.20;2.17;;;;;;;4.01;100.00;102797.72;5024853;28;20030;-40
2023/01/27 08:35:52;;;;;;;11.30;2.30;;;;;;;4.00;100.00;102798.66;5026304;28;20022;-41
2023/01/27 08:38:18;;;;;;;11.48;2.65;;;;;;;4.02;100.00;102797.63;5027603;28;20126;-40
2023/01/27 08:40:45;;;;;;;10.60;2.63;;;;;;;4.05;100.00;102796.59;5028432;28;20045;-39
2023/01/27 08:43:11;;;;;;;5.18;2.38;;;;;;;4.09;100.00;102788.31;5026909;28;20676;-39
2023/01/27 08:45:37;;;;;;;9.77;2.60;;;;;;;4.04;100.00;102795.72;5028914;28;20678;-40
2023/01/27 08:48:04;;;;;;;9.93;2.78;;;;;;;4.02;100.00;102802.09;5030023;28;20048;-39
2023/01/27 08:50:30;;;;;;;5.03;2.00;;;;;;;4.01;100.00;102795.91;5028420;28;20071;-38
2023/01/27 08:52:58;;;;;;;5.13;2.80;;;;;;;3.97;100.00;102805.88;5027003;28;20686;-39
2023/01/27 08:55:26;;;;;;;5.90;1.87;;;;;;;4.01;100.00;102805.72;5028120;28;20116;-39
2023/01/27 08:57:51;;;;;;;;;;;;;;;4.02;100.00;102813.59;5029265;28;20079;-39
2023/01/27 09:00:17;;;;;;;9.27;2.10;;;;;;;4.02;100.00;102810.09;5027924;28;19917;-39
2023/01/27 09:02:43;;;;;;;5.80;2.22;;;;;;;4.03;100.00;102810.00;5030838;28;20038;-41
2023/01/27 09:05:08;;;;;;;11.73;2.17;;;;;;;4.02;100.00;102805.63;5030344;28;20044;-40
2023/01/27 09:07:33;;;;;;;7.78;1.80;;;;;;;4.03;100.00;102810.00;5028959;28;20065;-39
2023/01/27 09:09:59;;;;;;;5.57;1.65;;;;;;;4.07;100.00;102810.69;5028898;28;20113;-38
2023/01/27 09:12:24;;;;;;;7.53;1.83;;;;;;;4.07;100.00;102819.53;5030371;28;20029;-41
2023/01/27 09:14:49;;;;;;;10.48;2.53;;;;;;;4.10;100.00;102822.00;5030069;28;20025;-41
2023/01/27 09:17:18;;;;;;;8.25;2.22;;;;;;;4.16;100.00;102819.00;5029306;28;20377;-40
2023/01/27 09:19:44;;;;;;;8.43;1.90;;;;;;;4.30;100.00;102812.81;5029171;28;20755;-40
2023/01/27 09:22:09;;;;;;;7.22;1.83;;;;;;;4.36;100.00;102817.78;5029687;28;20164;-40
2023/01/27 09:24:35;;;;;;;8.20;2.17;;;;;;;4.47;100.00;102818.94;5028913;28;20033;-39
2023/01/27 09:27:00;;;;;;;9.23;2.53;;;;;;;4.76;100.00;102826.00;5026352;28;20025;-40
2023/01/27 09:29:25;;;;;;;6.78;2.28;;;;;;;5.33;100.00;102827.75;5026212;28;20026;-40
2023/01/27 09:31:51;;;;;;;9.38;2.20;;;;;;;5.50;100.00;102821.31;5030237;28;20033;-40
2023/01/27 09:34:18;;;;;;;9.38;2.28;;;;;;;5.85;100.00;102821.66;5028035;28;20017;-39
2023/01/27 09:36:47;;;;;;;5.65;1.63;;;;;;;6.13;100.00;102823.38;5028894;28;20101;-40
2023/01/27 09:39:14;;;;;;;4.20;1.88;;;;;;;6.09;100.00;102821.00;5030264;28;20041;-39
2023/01/27 09:41:49;;;;;;;4.80;1.90;;;;;;;5.99;100.00;102834.13;5027015;28;20475;-40
2023/01/27 09:44:33;;;;;;;10.38;2.10;;;;;;;5.94;100.00;102830.91;5027150;28;20025;-40
2023/01/27 09:47:27;;;;;;;6.13;1.70;;;;;;;5.86;100.00;102831.38;5023318;28;20033;-40
2023/01/27 09:50:14;;;;;;;9.27;2.10;;;;;;;5.88;100.00;102829.47;5025310;28;20092;-40
2023/01/27 09:52:58;;;;;;;9.50;2.20;;;;;;;5.93;100.00;102819.38;5022391;28;20057;-39
2023/01/27 09:55:59;;;;;;;12.80;2.10;;;;;;;5.90;100.00;102830.22;5025434;28;20034;-39
2023/01/27 09:58:48;;;;;;;8.93;2.20;;;;;;;5.81;100.00;102835.31;5009553;28;20037;-39
2023/01/27 10:01:36;;;;;;;14.38;2.20;;;;;;;5.87;100.00;102822.44;5029535;28;20104;-40
2023/01/27 10:04:36;;;;;;;12.18;1.85;;;;;;;6.43;100.00;102821.38;5025799;28;20025;-40
2023/01/27 10:07:39;;;;;;;8.05;2.08;;;;;;;7.13;100.00;102813.69;5025358;28;20075;-39
2023/01/27 10:10:25;;;;;;;10.32;2.33;;;;;;;7.56;97.59;102812.38;5023880;28;20035;-40
2023/01/27 10:13:09;;;;;;;8.45;2.63;;;;;;;7.97;93.78;102809.25;5026248;28;20033;-40
2023/01/27 10:15:46;;;;;;;4.55;1.98;;;;;;;8.69;86.38;102814.44;5029318;28;20029;-40
2023/01/27 10:18:35;;;;;;;12.27;2.15;;;;;;;9.12;82.68;102816.38;5028585;28;20141;-40
2023/01/27 10:21:25;;;;;;;10.02;2.03;;;;;;;9.88;75.14;102821.78;5029124;28;20097;-41
2023/01/27 10:24:28;;;;;;;10.90;2.28;;;;;;;10.22;69.43;102827.00;5026631;28;20494;-40
2023/01/27 10:26:58;;;;;;;8.88;2.28;;;;;;;9.70;71.00;102823.34;5024369;28;20061;-41
2023/01/27 10:29:33;;;;;;;15.63;2.25;;;;;;;9.33;72.58;102824.53;5020535;28;20036;-40
2023/01/27 10:32:13;;;;;;;7.72;2.00;;;;;;;8.60;76.05;102817.00;5022937;28;20037;-40
2023/01/27 10:34:48;;;;;;;14.48;2.15;;;;;;;8.75;78.95;102826.53;5025099;28;20045;-40
2023/01/27 10:37:16;;;;;;;4.60;1.90;;;;;;;9.21;75.75;102817.44;5025441;28;20033;-40
2023/01/27 10:39:45;;;;;;;3.20;1.80;;;;;;;9.17;73.31;102816.00;5024638;28;20552;-40
2023/01/27 10:42:34;;;;;;;5.38;2.00;;;;;;;8.88;74.87;102819.19;5025461;28;20482;-40
2023/01/27 10:45:26;;;;;;;8.35;2.20;;;;;;;8.81;76.52;102823.34;5026734;28;20115;-40
2023/01/27 10:48:14;;;;;;;10.77;2.15;;;;;;;8.64;77.99;102821.16;5026107;28;20037;-44
2023/01/27 10:50:50;;;;;;;5.15;1.95;;;;;;;8.64;78.66;102821.16;5022523;28;20069;-40
2023/01/27 10:53:20;;;;;;;4.75;2.38;;;;;;;8.75;78.44;102818.47;5025107;28;20041;-40
2023/01/27 10:55:54;;;;;;;5.70;1.67;;;;;;;8.96;77.13;102810.53;5022925;28;20099;-39
2023/01/27 10:58:31;;;;;;;7.15;2.03;;;;;;;8.94;75.21;102807.97;5023963;28;20025;-41
2023/01/27 11:00:58;;;;;;;5.72;1.60;;;;;;;8.71;75.52;102806.25;5024185;28;20045;-41
2023/01/27 11:03:29;;;;;;;4.68;1.75;;;;;;;8.60;76.65;102803.56;5023399;28;20025;-41
2023/01/27 11:06:07;;;;;;;11.52;1.70;;;;;;;8.79;77.58;102803.81;5023153;28;20033;-41
2023/01/27 11:08:34;;;;;;;2.67;1.60;;;;;;;9.15;76.56;102796.47;5022766;28;20072;-42
2023/01/27 11:13:46;;;;;;;8.80;2.28;;;;;;;9.77;72.75;102800.31;5027631;28;20076;-42
2023/01/27 11:16:15;;;;;;;4.53;1.83;;;;;;;9.88;72.79;102808.34;5026779;28;20089;-40
2023/01/27 11:18:41;;;;;;;9.90;2.10;;;;;;;10.43;70.76;102802.81;5022399;28;20076;-41
2023/01/27 11:21:15;;;;;;;2.80;1.92;;;;;;;10.66;68.25;102808.88;5023729;28;21037;-40
2023/01/27 11:23:47;;;;;;;1.98;1.60;;;;;;;10.75;66.86;102808.06;5022606;28;20498;-41
2023/01/27 11:26:38;;;;;;;5.93;1.58;;;;;;;10.85;68.36;102814.34;5022449;28;20755;-40
2023/01/27 11:29:41;;;;;;;2.78;1.40;;;;;;;10.97;66.24;102809.72;5021324;28;20021;-40
2023/01/27 11:32:17;;;;;;;3.45;1.50;;;;;;;10.72;66.97;102801.13;4998962;28;20057;-41
2023/01/27 11:34:47;;;;;;;4.60;1.75;;;;;;;10.49;67.22;102794.19;5022982;28;20700;-40
2023/01/27 11:37:19;;;;;;;7.30;1.48;;;;;;;10.47;67.91;102794.31;5024107;28;20048;-40
2023/01/27 11:39:46;;;;;;;3.28;1.73;;;;;;;10.24;69.55;102793.59;5023666;28;20223;-40
2023/01/27 11:42:12;;;;;;;12.48;1.65;;;;;;;10.03;69.14;102782.84;5024780;28;20474;-41
2023/01/27 11:44:37;;;;;;;4.10;1.70;;;;;;;9.93;70.35;102789.13;5024557;28;20037;-40
2023/01/27 11:47:05;;;;;;;6.47;1.50;;;;;;;10.20;69.95;102792.16;5023710;28;20026;-41
2023/01/27 11:49:34;;;;;;;4.20;2.30;;;;;;;10.68;67.98;102788.03;5022497;28;20392;-41
2023/01/27 11:52:32;;;;;;;6.03;1.90;;;;;;;11.27;66.85;102772.91;5022716;28;20171;-41
2023/01/27 11:55:10;;;;;;;2.65;1.83;;;;;;;11.46;65.32;102775.66;4997477;28;20042;-39
2023/01/27 11:57:40;;;;;;;5.82;1.70;;;;;;;11.79;62.78;102774.34;5021908;28;20123;-40
2023/01/27 12:00:15;;;;;;;4.72;1.30;;;;;;;11.82;61.93;102778.63;5021955;28;20467;-41